Time;durP1;ratioP1;P1;durP2;ratioP2;P2;SDS_P1;SDS_P2;PMS_P1;PMS_P2;Temp;Humidity;BMP_temperature;BMP_pressure;BME280_temperature;BME280_humidity;BME280_pressure;Samples;Min_cycle;Max_cycle;Signal;HPM_P1;HPM_P2
2023/05/12 00:00:16;;;;;;;23.33;12.57;;;11.30;99.90;;;;;;4988922;28;209234;-75
2023/05/12 00:02:43;;;;;;;25.50;11.85;;;11.40;99.90;;;;;;5077455;28;20640;-75
2023/05/12 00:05:09;;;;;;;21.52;12.18;;;11.30;99.90;;;;;;5008794;28;206365;-75
2023/05/12 00:07:35;;;;;;;23.05;13.18;;;11.40;99.90;;;;;;5085108;28;20052;-75
2023/05/12 00:10:02;;;;;;;22.67;13.00;;;11.40;99.90;;;;;;5027398;28;206805;-75
2023/05/12 00:12:28;;;;;;;23.13;13.70;;;11.40;99.90;;;;;;5072131;28;20052;-74
2023/05/12 00:14:54;;;;;;;26.45;14.55;;;11.40;99.90;;;;;;4973604;28;205778;-74
2023/05/12 00:17:21;;;;;;;26.42;14.93;;;11.40;99.90;;;;;;5070583;28;20028;-74
2023/05/12 00:19:47;;;;;;;28.42;15.15;;;11.40;99.90;;;;;;5019469;28;210256;-75
2023/05/12 00:22:13;;;;;;;30.80;16.05;;;11.40;99.90;;;;;;5066152;28;20048;-75
2023/05/12 00:24:40;;;;;;;27.58;15.68;;;11.40;99.90;;;;;;4996974;28;215640;-74
2023/05/12 00:27:06;;;;;;;32.08;17.92;;;11.50;99.90;;;;;;5048403;28;20040;-76
2023/05/12 00:29:33;;;;;;;35.25;18.80;;;11.50;99.90;;;;;;5003361;28;206674;-78
2023/05/12 00:31:59;;;;;;;34.67;17.48;;;11.50;99.90;;;;;;5064665;28;20083;-77
2023/05/12 00:34:27;;;;;;;36.53;18.52;;;11.50;99.90;;;;;;4995713;28;230032;-76
2023/05/12 00:36:53;;;;;;;41.20;19.70;;;11.50;99.90;;;;;;5070357;28;20044;-76
2023/05/12 00:39:20;;;;;;;35.65;18.85;;;11.50;99.90;;;;;;5002885;28;209553;-76
2023/05/12 00:41:48;;;;;;;39.28;18.63;;;11.50;99.90;;;;;;5064904;28;20055;-73
2023/05/12 00:44:15;;;;;;;39.13;19.75;;;11.50;99.90;;;;;;5012991;28;210576;-74
2023/05/12 00:46:42;;;;;;;37.33;19.25;;;11.50;99.90;;;;;;5053804;28;20064;-75
2023/05/12 00:49:08;;;;;;;38.97;20.95;;;11.50;99.90;;;;;;5006597;28;204330;-76
2023/05/12 00:51:34;;;;;;;41.50;21.70;;;11.50;99.90;;;;;;5064498;28;20521;-75
2023/05/12 00:54:01;;;;;;;52.70;23.40;;;11.50;99.90;;;;;;5011005;28;207427;-74
2023/05/12 00:56:28;;;;;;;53.80;26.05;;;11.50;99.90;;;;;;5078780;28;20048;-77
2023/05/12 00:58:54;;;;;;;55.22;27.27;;;11.50;99.90;;;;;;4992167;28;207790;-75
2023/05/12 01:01:20;;;;;;;61.30;27.90;;;11.50;99.90;;;;;;5065444;28;20067;-77
2023/05/12 01:03:47;;;;;;;60.85;27.08;;;11.50;99.90;;;;;;5016463;28;197808;-77
2023/05/12 01:06:33;;;;;;;66.22;29.20;;;11.50;99.90;;;;;;5060208;28;20668;-77
2023/05/12 01:09:00;;;;;;;64.55;28.40;;;11.50;99.90;;;;;;5007354;28;208791;-76
2023/05/12 01:11:26;;;;;;;58.50;28.70;;;11.50;99.90;;;;;;5074903;28;20072;-74
2023/05/12 01:13:52;;;;;;;65.78;29.23;;;11.50;99.90;;;;;;5018162;28;204693;-74
2023/05/12 01:16:22;;;;;;;63.83;29.45;;;11.50;99.90;;;;;;5058834;28;20052;-76
2023/05/12 01:18:51;;;;;;;58.55;28.67;;;11.50;99.90;;;;;;5019418;28;207676;-75
2023/05/12 01:21:19;;;;;;;64.43;30.02;;;11.60;99.90;;;;;;5074308;28;20429;-75
2023/05/12 01:23:53;;;;;;;68.35;31.33;;;11.60;99.90;;;;;;5007053;28;208869;-75
2023/05/12 01:26:19;;;;;;;63.25;29.77;;;11.60;99.90;;;;;;5069566;28;20051;-75
2023/05/12 01:28:47;;;;;;;68.07;29.38;;;11.60;99.90;;;;;;5005700;28;209362;-74
2023/05/12 01:31:14;;;;;;;71.78;30.33;;;11.60;99.90;;;;;;5069008;28;20053;-76
2023/05/12 01:33:41;;;;;;;69.13;29.40;;;11.60;99.90;;;;;;5009363;28;209059;-75
2023/05/12 01:36:07;;;;;;;58.40;29.60;;;11.60;99.90;;;;;;5057893;28;20075;-75
2023/05/12 01:38:33;;;;;;;71.10;30.20;;;11.60;99.90;;;;;;4996442;28;222023;-74
2023/05/12 01:40:59;;;;;;;66.85;30.58;;;11.60;99.90;;;;;;5075401;28;20086;-75
2023/05/12 01:43:25;;;;;;;63.10;28.55;;;11.60;99.90;;;;;;5010922;28;206520;-75
2023/05/12 01:45:51;;;;;;;65.70;29.77;;;11.60;99.90;;;;;;5061345;28;20499;-76
2023/05/12 01:48:17;;;;;;;68.60;29.27;;;11.70;99.90;;;;;;5008674;28;207121;-74
2023/05/12 01:50:44;;;;;;;65.28;28.52;;;11.60;99.90;;;;;;5075305;28;20563;-74
2023/05/12 01:53:10;;;;;;;69.20;29.57;;;11.70;99.90;;;;;;5020041;28;217705;-75
2023/05/12 01:55:36;;;;;;;58.75;29.02;;;11.70;99.90;;;;;;5066058;28;20048;-75
2023/05/12 01:58:02;;;;;;;67.03;29.15;;;11.70;99.90;;;;;;5024447;28;222261;-76
2023/05/12 02:00:28;;;;;;;59.38;28.10;;;11.70;99.90;;;;;;5049474;28;129155;-75
2023/05/12 02:02:54;;;;;;;68.03;28.65;;;11.70;99.90;;;;;;5061974;28;206894;-75
2023/05/12 02:05:21;;;;;;;67.28;30.13;;;11.70;99.90;;;;;;5018613;28;206176;-75
2023/05/12 02:07:47;;;;;;;66.25;30.77;;;11.70;99.90;;;;;;5054254;28;20049;-76
2023/05/12 02:10:13;;;;;;;74.10;31.05;;;11.70;99.90;;;;;;4965196;28;208305;-76
2023/05/12 02:12:39;;;;;;;63.20;28.77;;;11.70;99.90;;;;;;5057013;28;20067;-75
2023/05/12 02:15:06;;;;;;;71.45;29.48;;;11.80;99.90;;;;;;4980437;28;215835;-75
2023/05/12 02:17:32;;;;;;;68.68;30.80;;;11.80;99.90;;;;;;5066750;28;20044;-74
2023/05/12 02:19:58;;;;;;;66.47;29.77;;;11.80;99.90;;;;;;5004651;28;230849;-74
2023/05/12 02:22:25;;;;;;;60.72;29.05;;;11.80;99.90;;;;;;5073243;28;20052;-75
2023/05/12 02:24:51;;;;;;;64.70;29.35;;;11.80;99.90;;;;;;5008173;28;208178;-76
2023/05/12 02:27:17;;;;;;;69.85;31.80;;;11.80;99.90;;;;;;5052875;28;20103;-76
2023/05/12 02:29:43;;;;;;;65.20;30.27;;;11.90;99.90;;;;;;4992317;28;209079;-75
2023/05/12 02:32:10;;;;;;;70.68;31.00;;;11.90;99.90;;;;;;5048023;28;20529;-75
2023/05/12 02:34:36;;;;;;;59.10;29.55;;;11.90;99.90;;;;;;4990174;28;208277;-75
2023/05/12 02:37:02;;;;;;;62.03;29.85;;;11.90;99.90;;;;;;5071485;28;20055;-76
2023/05/12 02:39:28;;;;;;;69.25;31.35;;;11.90;99.90;;;;;;5011139;28;205439;-76
2023/05/12 02:41:54;;;;;;;66.57;31.15;;;12.00;99.90;;;;;;5080471;28;20044;-76
2023/05/12 02:44:21;;;;;;;60.95;29.50;;;12.00;99.90;;;;;;5010446;28;224316;-76
2023/05/12 02:46:47;;;;;;;63.10;30.55;;;12.00;99.90;;;;;;5072590;28;20052;-76
2023/05/12 02:49:13;;;;;;;64.32;31.92;;;12.00;99.90;;;;;;5016173;28;208378;-76
2023/05/12 02:51:39;;;;;;;59.33;30.88;;;12.00;99.90;;;;;;5073284;28;20051;-75
2023/05/12 02:54:05;;;;;;;61.28;31.17;;;12.00;99.90;;;;;;5007094;28;211776;-75
2023/05/12 02:56:32;;;;;;;63.40;33.33;;;12.00;99.90;;;;;;5054755;28;20056;-75
2023/05/12 02:58:58;;;;;;;61.78;32.58;;;12.10;99.90;;;;;;4996345;28;207381;-76
2023/05/12 03:01:24;;;;;;;64.18;33.28;;;12.00;99.90;;;;;;5047242;28;20049;-76
2023/05/12 03:03:50;;;;;;;70.18;34.55;;;12.00;99.90;;;;;;5002095;28;206638;-76
2023/05/12 03:06:16;;;;;;;70.88;35.03;;;12.00;99.90;;;;;;5058408;28;20068;-76
2023/05/12 03:08:42;;;;;;;71.05;34.63;;;12.10;99.90;;;;;;4995225;28;205629;-75
2023/05/12 03:11:08;;;;;;;76.90;35.40;;;12.00;99.90;;;;;;5077450;28;20039;-76
2023/05/12 03:13:34;;;;;;;76.32;35.03;;;12.00;99.90;;;;;;5015797;28;208966;-76
2023/05/12 03:16:01;;;;;;;75.35;36.25;;;12.00;99.90;;;;;;5038084;28;20067;-75
2023/05/12 03:18:30;;;;;;;74.07;36.42;;;12.00;99.90;;;;;;5023378;28;216564;-75
2023/05/12 03:20:56;;;;;;;73.47;35.83;;;12.00;99.90;;;;;;5050512;28;20059;-76
2023/05/12 03:23:22;;;;;;;83.25;37.10;;;12.00;99.90;;;;;;5000974;28;223431;-76
2023/05/12 03:25:48;;;;;;;77.72;37.10;;;12.00;99.90;;;;;;5086358;28;20063;-76
2023/05/12 03:28:14;;;;;;;82.53;37.92;;;12.10;99.90;;;;;;5019274;28;206829;-76
2023/05/12 03:30:40;;;;;;;77.07;37.22;;;12.10;99.90;;;;;;5048046;28;20068;-76
2023/05/12 03:33:07;;;;;;;81.47;38.28;;;12.10;99.90;;;;;;5009599;28;226326;-76
2023/05/12 03:35:33;;;;;;;75.15;37.03;;;12.00;99.90;;;;;;5061124;28;20672;-75
2023/05/12 03:37:59;;;;;;;82.15;37.22;;;12.00;99.90;;;;;;5032128;28;209846;-76
2023/05/12 03:40:25;;;;;;;67.82;35.30;;;12.00;99.90;;;;;;5028951;28;20052;-76
2023/05/12 03:42:51;;;;;;;85.82;37.67;;;12.00;99.90;;;;;;5073592;28;20041;-75
2023/05/12 03:45:17;;;;;;;77.68;39.03;;;12.00;99.90;;;;;;5041224;28;208021;-75
2023/05/12 03:47:44;;;;;;;77.75;37.72;;;12.10;99.90;;;;;;5058314;28;20132;-77
2023/05/12 03:50:10;;;;;;;79.97;36.78;;;12.10;99.90;;;;;;5026060;28;208473;-76
2023/05/12 03:52:37;;;;;;;71.57;35.50;;;12.00;99.90;;;;;;5065649;28;20040;-77
2023/05/12 03:55:05;;;;;;;75.10;35.47;;;12.10;99.90;;;;;;5008297;28;209340;-76
2023/05/12 03:57:33;;;;;;;76.20;37.35;;;12.10;99.90;;;;;;5073476;28;20059;-76
2023/05/12 03:59:59;;;;;;;75.07;35.80;;;12.10;99.90;;;;;;4994886;28;212290;-76
2023/05/12 04:02:25;;;;;;;73.60;36.28;;;12.10;99.90;;;;;;5067155;28;20059;-76
2023/05/12 04:04:51;;;;;;;86.30;36.00;;;12.10;99.90;;;;;;5021675;28;210006;-76
2023/05/12 04:07:17;;;;;;;85.47;38.13;;;12.10;99.90;;;;;;5057683;28;20045;-76
2023/05/12 04:09:43;;;;;;;78.72;36.55;;;12.10;99.90;;;;;;4993613;28;205944;-76
2023/05/12 04:12:10;;;;;;;84.60;37.53;;;12.10;99.90;;;;;;5074602;28;20041;-77
2023/05/12 04:14:36;;;;;;;71.43;36.83;;;12.10;99.90;;;;;;5007212;28;205764;-77
2023/05/12 04:17:02;;;;;;;72.43;36.45;;;12.10;99.90;;;;;;5072578;28;20078;-77
2023/05/12 04:19:28;;;;;;;73.82;36.65;;;12.20;99.90;;;;;;4999623;28;205650;-77
2023/05/12 04:21:54;;;;;;;75.53;36.85;;;12.20;99.90;;;;;;5073901;28;20051;-77
2023/05/12 04:24:20;;;;;;;77.88;36.05;;;12.20;99.90;;;;;;5004430;28;210302;-77
2023/05/12 04:26:46;;;;;;;79.38;36.45;;;12.20;99.90;;;;;;5056130;28;20079;-77
2023/05/12 04:29:12;;;;;;;78.05;36.67;;;12.20;99.90;;;;;;5016738;28;78711;-77
2023/05/12 04:31:38;;;;;;;81.82;38.83;;;12.20;99.90;;;;;;5067958;28;20052;-78
2023/05/12 04:34:04;;;;;;;72.45;35.90;;;12.20;99.90;;;;;;4984079;28;209910;-77
2023/05/12 04:36:31;;;;;;;81.00;36.85;;;12.20;99.90;;;;;;5040132;28;20056;-76
2023/05/12 04:38:57;;;;;;;68.82;34.50;;;12.30;99.90;;;;;;4986353;28;206632;-77
2023/05/12 04:41:23;;;;;;;71.55;36.47;;;12.30;99.90;;;;;;5049965;28;20052;-78
2023/05/12 04:43:49;;;;;;;80.05;36.90;;;12.30;99.90;;;;;;4997183;28;205425;-77
2023/05/12 04:46:15;;;;;;;73.57;36.40;;;12.30;99.90;;;;;;5049831;28;20053;-77
2023/05/12 04:48:42;;;;;;;82.10;37.47;;;12.30;99.90;;;;;;4994498;28;206275;-78
2023/05/12 04:51:08;;;;;;;81.07;36.58;;;12.30;99.90;;;;;;5058856;28;20079;-77
2023/05/12 04:53:35;;;;;;;80.38;36.28;;;12.40;99.90;;;;;;4999754;28;207673;-77
2023/05/12 04:56:02;;;;;;;70.80;34.38;;;12.40;99.90;;;;;;5040577;28;20079;-77
2023/05/12 04:58:28;;;;;;;76.97;35.35;;;12.40;99.90;;;;;;4988200;28;211589;-77
2023/05/12 05:00:54;;;;;;;90.85;38.58;;;12.40;99.90;;;;;;5056315;28;20055;-77
2023/05/12 05:03:20;;;;;;;84.85;38.17;;;12.40;99.90;;;;;;5005550;28;212823;-77
2023/05/12 05:05:47;;;;;;;73.43;36.33;;;12.50;99.90;;;;;;5042753;28;20110;-78
2023/05/12 05:08:14;;;;;;;70.43;36.08;;;12.50;99.90;;;;;;4993162;28;209030;-77
2023/05/12 05:10:40;;;;;;;73.78;35.60;;;12.50;99.90;;;;;;5041185;28;20064;-77
2023/05/12 05:13:06;;;;;;;71.87;36.40;;;12.50;99.90;;;;;;4998425;28;208482;-77
2023/05/12 05:15:32;;;;;;;70.95;35.45;;;12.50;99.90;;;;;;5025327;28;20045;-77
2023/05/12 05:17:58;;;;;;;72.95;36.15;;;12.60;99.90;;;;;;5033493;28;206763;-76
2023/05/12 05:20:27;;;;;;;74.25;34.95;;;12.60;99.90;;;;;;4996984;28;206340;-77
2023/05/12 05:22:53;;;;;;;65.57;33.10;;;12.60;99.90;;;;;;5053580;28;20056;-76
2023/05/12 05:25:19;;;;;;;68.50;35.60;;;12.60;99.90;;;;;;5013889;28;255379;-77
2023/05/12 05:27:45;;;;;;;70.32;35.33;;;12.70;99.90;;;;;;5069496;28;20138;-77
2023/05/12 05:30:12;;;;;;;67.38;35.40;;;12.70;99.90;;;;;;4984128;28;207783;-78
2023/05/12 05:32:39;;;;;;;70.13;35.25;;;12.60;99.90;;;;;;5063768;28;20766;-78
2023/05/12 05:35:07;;;;;;;63.92;33.95;;;12.60;99.90;;;;;;4998757;28;167670;-78
2023/05/12 05:37:33;;;;;;;68.90;33.53;;;12.70;99.90;;;;;;5080825;28;20052;-77
2023/05/12 05:39:59;;;;;;;62.85;33.58;;;12.80;99.90;;;;;;5007433;28;210235;-78
2023/05/12 05:42:25;;;;;;;59.40;32.30;;;12.70;99.90;;;;;;5074802;28;20422;-77
2023/05/12 05:44:51;;;;;;;56.55;32.97;;;12.80;99.90;;;;;;5016263;28;207368;-77
2023/05/12 05:47:17;;;;;;;55.80;32.20;;;12.80;99.90;;;;;;5077087;28;20082;-77
2023/05/12 05:49:44;;;;;;;61.05;32.35;;;12.80;99.90;;;;;;5020354;28;230130;-77
2023/05/12 05:52:10;;;;;;;66.25;34.38;;;12.80;99.90;;;;;;5075014;28;20048;-76
2023/05/12 05:54:36;;;;;;;57.50;33.58;;;12.80;99.90;;;;;;5021445;28;209405;-77
2023/05/12 05:57:02;;;;;;;57.50;31.80;;;12.80;99.90;;;;;;5074595;28;20054;-77
2023/05/12 05:59:28;;;;;;;56.97;32.65;;;12.90;99.90;;;;;;4999385;28;206013;-76
2023/05/12 06:01:54;;;;;;;66.32;33.70;;;12.80;99.90;;;;;;5076079;28;20055;-72
2023/05/12 06:04:20;;;;;;;60.13;33.97;;;12.90;99.90;;;;;;5005508;28;215545;-78
2023/05/12 06:06:47;;;;;;;57.92;33.35;;;12.90;99.90;;;;;;5074626;28;20407;-75
2023/05/12 06:09:14;;;;;;;58.50;33.38;;;12.90;99.90;;;;;;5009969;28;207922;-75
2023/05/12 06:11:40;;;;;;;60.67;33.75;;;13.00;99.90;;;;;;5064158;28;20044;-75
2023/05/12 06:14:06;;;;;;;59.55;32.90;;;13.00;99.90;;;;;;5012294;28;207709;-75
2023/05/12 06:16:32;;;;;;;62.92;33.85;;;13.00;99.90;;;;;;5055133;28;20052;-74
2023/05/12 06:18:58;;;;;;;62.00;33.72;;;13.00;99.90;;;;;;4999361;28;211119;-75
2023/05/12 06:21:25;;;;;;;62.08;34.08;;;13.00;99.90;;;;;;5061840;28;20052;-75
2023/05/12 06:23:51;;;;;;;62.25;34.22;;;13.00;99.90;;;;;;4991533;28;215886;-75
2023/05/12 06:26:17;;;;;;;66.20;35.90;;;13.20;99.90;;;;;;5052503;28;20053;-76
2023/05/12 06:28:43;;;;;;;62.22;34.75;;;13.20;99.90;;;;;;4977796;28;213957;-76
2023/05/12 06:31:09;;;;;;;54.13;32.00;;;13.10;99.90;;;;;;5041346;28;20052;-73
2023/05/12 06:33:35;;;;;;;55.55;32.97;;;13.10;99.90;;;;;;5008901;28;206582;-74
2023/05/12 06:36:01;;;;;;;52.03;31.92;;;13.10;99.90;;;;;;5085842;28;20064;-75
2023/05/12 06:38:27;;;;;;;47.97;30.55;;;13.20;99.90;;;;;;5022258;28;206499;-74
2023/05/12 06:40:53;;;;;;;47.47;30.42;;;13.20;99.90;;;;;;5037232;28;20056;-75
2023/05/12 06:43:19;;;;;;;49.97;31.70;;;13.20;99.90;;;;;;5023619;28;207185;-75
2023/05/12 06:45:46;;;;;;;47.10;30.33;;;13.20;99.90;;;;;;5083544;28;20052;-75
2023/05/12 06:48:12;;;;;;;48.30;28.85;;;13.30;99.90;;;;;;4995340;28;207404;-75
2023/05/12 06:50:38;;;;;;;53.35;32.17;;;13.20;99.90;;;;;;5048290;28;20057;-75
2023/05/12 06:53:05;;;;;;;51.80;32.13;;;13.10;99.90;;;;;;5015737;28;220105;-74
2023/05/12 06:55:31;;;;;;;53.83;32.10;;;13.10;99.90;;;;;;5050581;28;20052;-74
2023/05/12 06:57:57;;;;;;;52.10;32.35;;;13.10;99.90;;;;;;5055510;28;209285;-75
2023/05/12 07:00:24;;;;;;;57.10;32.40;;;13.10;99.90;;;;;;5017283;28;219588;-75
2023/05/12 07:02:51;;;;;;;54.40;32.83;;;13.10;99.90;;;;;;5078605;28;20064;-75
2023/05/12 07:05:17;;;;;;;51.67;33.28;;;13.20;99.90;;;;;;5013561;28;215262;-75
2023/05/12 07:07:44;;;;;;;51.10;32.53;;;13.20;99.90;;;;;;5076568;28;20060;-74
2023/05/12 07:10:10;;;;;;;50.90;32.80;;;13.10;99.90;;;;;;5015754;28;203884;-75
2023/05/12 07:12:37;;;;;;;50.33;32.13;;;13.00;99.90;;;;;;5081153;28;20052;-74
2023/05/12 07:15:04;;;;;;;53.97;31.42;;;13.00;99.90;;;;;;5009320;28;215838;-74
2023/05/12 07:17:30;;;;;;;52.50;31.95;;;13.00;99.90;;;;;;5070882;28;20052;-74
2023/05/12 07:19:56;;;;;;;56.38;32.88;;;13.10;99.90;;;;;;4974620;28;206210;-74
2023/05/12 07:22:23;;;;;;;59.50;34.10;;;13.10;99.90;;;;;;5056878;28;20673;-74
2023/05/12 07:24:49;;;;;;;59.75;33.80;;;13.10;99.90;;;;;;5017961;28;218425;-74
2023/05/12 07:27:15;;;;;;;51.17;31.88;;;13.20;99.90;;;;;;5052318;28;20061;-75
2023/05/12 07:29:41;;;;;;;59.97;33.50;;;13.20;99.90;;;;;;5020801;28;74037;-74
2023/05/12 07:32:07;;;;;;;53.92;32.83;;;13.30;99.90;;;;;;5055310;28;20478;-75
2023/05/12 07:34:33;;;;;;;53.42;32.40;;;13.40;99.90;;;;;;4994932;28;212975;-74
2023/05/12 07:37:01;;;;;;;56.20;34.38;;;13.40;99.90;;;;;;5057558;28;20064;-74
2023/05/12 07:39:29;;;;;;;53.60;33.60;;;13.50;99.90;;;;;;4989725;28;205468;-74
2023/05/12 07:41:55;;;;;;;56.80;33.70;;;13.60;99.90;;;;;;5055150;28;20638;-74
2023/05/12 07:44:21;;;;;;;54.40;33.13;;;13.60;99.90;;;;;;4998894;28;207601;-74
2023/05/12 07:46:48;;;;;;;56.05;34.58;;;13.70;99.90;;;;;;5054461;28;20072;-74
2023/05/12 07:49:14;;;;;;;51.83;33.80;;;13.80;99.90;;;;;;5022409;28;207775;-75
2023/05/12 07:51:40;;;;;;;57.35;35.55;;;13.90;99.90;;;;;;5076204;28;20043;-74
2023/05/12 07:54:06;;;;;;;58.80;34.90;;;14.10;99.90;;;;;;5010397;28;223047;-73
2023/05/12 07:56:32;;;;;;;53.40;32.70;;;14.20;99.90;;;;;;5066049;28;20499;-73
2023/05/12 07:58:58;;;;;;;54.25;33.35;;;14.40;99.90;;;;;;4989551;28;208277;-74
2023/05/12 08:01:24;;;;;;;52.38;33.20;;;14.60;99.90;;;;;;5048785;28;20051;-74
2023/05/12 08:03:51;;;;;;;49.60;33.28;;;14.70;99.90;;;;;;4990725;28;207853;-74
2023/05/12 08:06:17;;;;;;;48.92;32.67;;;15.10;99.90;;;;;;5065932;28;20123;-74
2023/05/12 08:08:43;;;;;;;43.10;30.52;;;15.30;99.90;;;;;;4999076;28;209933;-74
2023/05/12 08:11:10;;;;;;;45.88;29.98;;;15.50;99.90;;;;;;5065948;28;20052;-75
2023/05/12 08:13:37;;;;;;;40.70;30.08;;;15.70;99.90;;;;;;5020358;28;209306;-75
2023/05/12 08:16:03;;;;;;;42.00;29.85;;;15.80;99.90;;;;;;5052508;28;20056;-75
2023/05/12 08:18:29;;;;;;;38.70;28.65;;;15.80;99.90;;;;;;5015477;28;212460;-74
2023/05/12 08:20:55;;;;;;;38.90;27.58;;;15.90;99.90;;;;;;5062628;28;20044;-75
2023/05/12 08:23:22;;;;;;;38.63;27.70;;;15.90;99.90;;;;;;5013858;28;206988;-75
2023/05/12 08:25:48;;;;;;;36.53;26.95;;;16.10;99.90;;;;;;5080496;28;20499;-75
2023/05/12 08:28:15;;;;;;;41.63;28.83;;;16.20;99.90;;;;;;5013598;28;207174;-75
2023/05/12 08:30:41;;;;;;;39.83;27.63;;;16.30;99.90;;;;;;5027400;28;20068;-73
2023/05/12 08:33:07;;;;;;;37.22;28.02;;;16.50;99.90;;;;;;4994041;28;206972;-73
2023/05/12 08:35:34;;;;;;;37.55;27.40;;;16.60;99.90;;;;;;5039445;28;20577;-73
2023/05/12 08:38:01;;;;;;;35.10;26.80;;;16.80;99.90;;;;;;5021417;28;207624;-73
2023/05/12 08:40:30;;;;;;;37.15;27.23;;;17.00;99.90;;;;;;5028993;28;20044;-72
2023/05/12 08:43:25;;;;;;;36.70;26.48;;;17.20;99.90;;;;;;5035100;28;207556;-72
2023/05/12 08:45:58;;;;;;;36.88;26.00;;;17.50;99.90;;;;;;5011457;28;80700;-72
2023/05/12 08:48:26;;;;;;;33.70;24.90;;;17.70;99.90;;;;;;4987901;28;206424;-72
2023/05/12 08:50:53;;;;;;;30.88;23.33;;;18.00;99.90;;;;;;5045035;28;20530;-74
2023/05/12 08:53:21;;;;;;;29.05;22.73;;;18.10;99.90;;;;;;4995807;28;208427;-74
2023/05/12 08:55:48;;;;;;;29.83;23.10;;;18.10;99.90;;;;;;5037669;28;20420;-73
2023/05/12 08:58:14;;;;;;;27.70;23.10;;;18.30;99.90;;;;;;4978792;28;226762;-74
2023/05/12 09:00:41;;;;;;;27.63;21.95;;;18.60;99.90;;;;;;5019507;28;20056;-75
2023/05/12 09:03:07;;;;;;;27.15;22.58;;;18.70;99.90;;;;;;5001431;28;208738;-74
2023/05/12 09:05:33;;;;;;;30.10;24.13;;;18.80;99.90;;;;;;5035047;28;20074;-74
2023/05/12 09:08:00;;;;;;;26.90;22.13;;;19.10;99.90;;;;;;5022601;28;210392;-72
2023/05/12 09:10:27;;;;;;;26.52;21.63;;;19.50;99.90;;;;;;5028312;28;20053;-74
2023/05/12 09:13:14;;;;;;;26.17;21.70;;;19.80;99.90;;;;;;5059150;28;20049;-73
2023/05/12 09:15:43;;;;;;;27.73;22.05;;;20.10;99.90;;;;;;4994281;28;206326;-72
2023/05/12 09:18:09;;;;;;;27.30;21.00;;;20.30;99.90;;;;;;5004091;28;208226;-72
2023/05/12 09:20:35;;;;;;;28.08;21.63;;;20.30;99.90;;;;;;5049346;28;20052;-73
2023/05/12 09:23:19;;;;;;;26.75;21.88;;;20.20;99.90;;;;;;5011246;28;232992;-72
2023/05/12 09:25:45;;;;;;;24.85;20.73;;;20.50;99.90;;;;;;5050901;28;20063;-71
2023/05/12 09:28:13;;;;;;;24.70;20.15;;;20.70;99.90;;;;;;5018878;28;209876;-70
2023/05/12 09:30:41;;;;;;;24.05;20.30;;;20.70;99.90;;;;;;5060085;28;20044;-71
2023/05/12 09:33:11;;;;;;;25.17;19.33;;;20.90;99.90;;;;;;5004325;28;207394;-70
2023/05/12 09:35:42;;;;;;;25.30;21.02;;;21.10;99.90;;;;;;5063292;28;20048;-71
2023/05/12 09:38:10;;;;;;;22.77;19.27;;;21.10;99.90;;;;;;4993780;28;212520;-70
2023/05/12 09:40:36;;;;;;;22.13;18.92;;;21.50;99.90;;;;;;5064360;28;20063;-71
2023/05/12 09:43:06;;;;;;;21.80;18.45;;;21.80;99.90;;;;;;4998395;28;207229;-71
2023/05/12 09:45:37;;;;;;;24.83;18.60;;;21.80;99.90;;;;;;5047189;28;20120;-71
2023/05/12 09:48:12;;;;;;;22.67;19.92;;;22.20;99.90;;;;;;5010613;28;210805;-70
2023/05/12 09:50:51;;;;;;;22.98;18.80;;;22.20;99.90;;;;;;5046087;28;20056;-71
2023/05/12 09:53:18;;;;;;;21.88;19.25;;;22.50;99.90;;;;;;5008641;28;229236;-71
2023/05/12 09:55:45;;;;;;;22.42;18.08;;;22.90;99.90;;;;;;5052431;28;20041;-71
2023/05/12 09:58:14;;;;;;;20.38;17.58;;;23.20;99.90;;;;;;4984207;28;212192;-71
2023/05/12 10:00:42;;;;;;;21.33;17.80;;;23.60;99.90;;;;;;5083153;28;20057;-72
2023/05/12 10:03:16;;;;;;;21.92;17.90;;;23.40;99.90;;;;;;5019542;28;207794;-72
2023/05/12 10:05:49;;;;;;;23.52;18.48;;;23.20;99.90;;;;;;5065786;28;20056;-72
2023/05/12 10:08:20;;;;;;;21.40;18.20;;;23.20;99.90;;;;;;5016086;28;211107;-72
2023/05/12 10:10:47;;;;;;;22.38;17.27;;;23.00;99.90;;;;;;5082419;28;20549;-72
2023/05/12 10:13:14;;;;;;;21.02;17.63;;;23.20;99.90;;;;;;5022854;28;207711;-71
2023/05/12 10:15:41;;;;;;;23.23;18.90;;;23.50;99.90;;;;;;5087739;28;20055;-72
2023/05/12 10:18:08;;;;;;;20.38;16.63;;;23.60;99.90;;;;;;5024938;28;207571;-71
2023/05/12 10:20:35;;;;;;;21.92;17.33;;;23.80;99.90;;;;;;5064265;28;20044;-72
2023/05/12 10:23:02;;;;;;;20.02;15.63;;;24.70;99.90;;;;;;5037885;28;220945;-70
2023/05/12 10:25:30;;;;;;;19.58;16.33;;;25.30;99.90;;;;;;5030118;28;20419;-72
2023/05/12 10:27:57;;;;;;;18.73;14.52;;;25.60;99.90;;;;;;5048875;28;221186;-72
2023/05/12 10:30:23;;;;;;;18.52;14.63;;;26.00;99.90;;;;;;5032704;28;191192;-72
2023/05/12 10:32:50;;;;;;;19.42;15.20;;;26.40;99.90;;;;;;5082525;28;20071;-71
2023/05/12 10:35:16;;;;;;;16.58;14.73;;;26.60;99.90;;;;;;5006155;28;209024;-72
2023/05/12 10:37:43;;;;;;;14.75;12.00;;;26.50;99.80;;;;;;5085368;28;20075;-72
2023/05/12 10:40:10;;;;;;;15.90;11.73;;;26.20;99.90;;;;;;5026259;28;210086;-71
2023/05/12 10:42:41;;;;;;;15.57;12.18;;;26.50;99.90;;;;;;5079274;28;20051;-72
2023/05/12 10:45:18;;;;;;;13.98;11.70;;;26.90;98.60;;;;;;5014563;28;207753;-72
2023/05/12 10:47:47;;;;;;;15.52;11.18;;;27.00;99.00;;;;;;5077447;28;20520;-72
2023/05/12 10:50:13;;;;;;;14.63;11.02;;;27.30;99.60;;;;;;5032383;28;210399;-72
2023/05/12 10:52:54;;;;;;;15.43;12.93;;;27.70;99.40;;;;;;5079596;28;20052;-71
2023/05/12 10:55:30;;;;;;;16.77;13.27;;;27.70;97.70;;;;;;4992490;28;158644;-72
2023/05/12 10:58:04;;;;;;;16.13;13.45;;;27.70;98.30;;;;;;5057447;28;216652;-71
2023/05/12 11:00:30;;;;;;;18.00;13.27;;;27.70;97.60;;;;;;5027735;28;20472;-72
2023/05/12 11:02:57;;;;;;;16.77;13.20;;;27.10;98.20;;;;;;5062844;28;210853;-72
2023/05/12 11:05:33;;;;;;;18.60;13.38;;;26.00;98.10;;;;;;5014193;28;20059;-72
2023/05/12 11:07:59;;;;;;;14.10;12.30;;;25.20;98.10;;;;;;5051477;28;207614;-71
2023/05/12 11:10:28;;;;;;;15.80;12.52;;;25.00;98.80;;;;;;5030393;28;20438;-72
2023/05/12 11:12:55;;;;;;;18.05;14.05;;;24.90;98.50;;;;;;5075269;28;20048;-72
2023/05/12 11:15:21;;;;;;;16.92;13.23;;;24.90;98.40;;;;;;5014860;28;200992;-71
2023/05/12 11:17:47;;;;;;;19.00;13.57;;;24.90;99.10;;;;;;5079662;28;20074;-72
2023/05/12 11:20:24;;;;;;;16.73;13.07;;;25.70;99.30;;;;;;5012608;28;209358;-72
2023/05/12 11:22:51;;;;;;;17.38;12.52;;;26.10;98.50;;;;;;5079406;28;20051;-72
2023/05/12 11:25:17;;;;;;;16.50;12.70;;;26.50;98.00;;;;;;5028529;28;207995;-72
2023/05/12 11:27:50;;;;;;;16.55;13.77;;;26.70;97.10;;;;;;5080405;28;20044;-72
2023/05/12 11:30:16;;;;;;;17.85;13.52;;;26.80;96.70;;;;;;5021111;28;207750;-71
2023/05/12 11:32:42;;;;;;;16.52;10.43;;;27.30;97.00;;;;;;5082084;28;20048;-71
2023/05/12 11:35:09;;;;;;;14.68;8.75;;;27.40;96.30;;;;;;5014433;28;206563;-72
2023/05/12 11:37:37;;;;;;;14.93;8.85;;;27.40;96.10;;;;;;5078824;28;20056;-71
2023/05/12 11:40:14;;;;;;;12.18;8.95;;;27.50;96.50;;;;;;5013099;28;207635;-71
2023/05/12 11:42:44;;;;;;;14.43;8.88;;;27.50;94.30;;;;;;5079571;28;20052;-71
2023/05/12 11:45:23;;;;;;;14.48;8.15;;;27.70;96.00;;;;;;4992020;28;207897;-71
2023/05/12 11:47:50;;;;;;;11.70;6.78;;;27.60;94.30;;;;;;5073467;28;20059;-71
2023/05/12 11:50:21;;;;;;;14.48;7.07;;;27.60;94.90;;;;;;5005338;28;207832;-71
2023/05/12 11:52:47;;;;;;;13.20;7.93;;;28.10;94.70;;;;;;5072314;28;20140;-73
2023/05/12 11:55:22;;;;;;;14.48;6.90;;;28.40;94.40;;;;;;5005491;28;209105;-73
2023/05/12 11:57:59;;;;;;;11.13;5.68;;;28.40;94.00;;;;;;5071073;28;20059;-73
2023/05/12 12:00:33;;;;;;;9.77;4.93;;;28.50;92.80;;;;;;4995822;28;20049;-72
2023/05/12 12:03:12;;;;;;;10.45;4.88;;;28.30;93.40;;;;;;5018323;28;219092;-72
2023/05/12 12:05:44;;;;;;;9.20;5.10;;;28.90;92.90;;;;;;5007915;28;20052;-72
2023/05/12 12:08:16;;;;;;;10.17;4.80;;;29.00;93.40;;;;;;5002273;28;206284;-72
2023/05/12 12:10:46;;;;;;;10.75;5.35;;;29.00;91.40;;;;;;5055519;28;20053;-72
2023/05/12 12:13:18;;;;;;;11.77;4.75;;;29.00;92.10;;;;;;4994293;28;208411;-73
2023/05/12 12:15:44;;;;;;;10.10;4.43;;;29.40;92.80;;;;;;5056561;28;20052;-73
2023/05/12 12:18:10;;;;;;;8.67;3.63;;;29.10;92.20;;;;;;5003699;28;207203;-72
2023/05/12 12:20:37;;;;;;;7.80;3.90;;;28.60;91.10;;;;;;5063840;28;20056;-73
2023/05/12 12:23:03;;;;;;;10.05;4.40;;;28.60;91.10;;;;;;5005718;28;206901;-73